CheckWX is a tool to help pilots better visualize weather data.  It is not intended as a substitute for an official pre-flight weather briefing.

12:23:36 UTC

CYPH TAF
Inukjuak Airport
Inukjuak, Canada
TAF CYPH 221139Z 2212/2224 32014KT P6SM SKC TEMPO 2212/2215 5SM IC FM222100 24012KT P6SM FEW015 SCT120 BECMG 2222/2224 21012G22KT RMK FCST BASED ON AUTO OBS. NXT FCST BY 221800Z

Mar-22@
12:00 UTC

Mar-22 @ 12:00 UTC

Mar-22@
21:00 UTC

Mar-22 @ 21:00 UTC

TAF CYPH 221139Z 2212/2224 32014KT P6SM SKC
Wind
  • 320° at 14 KTS
Cloud Levels
  • Clear skies

Mar-22@
12:00 UTC

Mar-22 @ 12:00 UTC

Mar-22@
15:00 UTC

Mar-22 @ 15:00 UTC

TEMPO 2212/2215 5SM IC

Temporary

Temporary Changes expected for less than half the time period

Conditions
Ice crystals

Mar-22@
21:00 UTC

Mar-22 @ 21:00 UTC

Mar-22@
22:00 UTC

Mar-22 @ 22:00 UTC

FM222100 24012KT P6SM FEW015 SCT120

From

From Standard forecast or significant change

Wind
  • 240° at 12 KTS
Cloud Levels
  • Few at 1,500' AGL
  • Scattered at 12,000' AGL

Mar-22@
22:00 UTC

Mar-22 @ 22:00 UTC

Mar-23@
00:00 UTC

Mar-23 @ 00:00 UTC

BECMG 2222/2224 21012G22KT RMK FCST BASED ON AUTO OBS. NXT FCST BY 221800Z

Becoming

Becoming Conditions expected by Sat, Mar 23, 2019 @ 00:00 UTC

Wind
  • 210° at 12 KTS
  • {Gusting to 22 KTS
Cloud Levels
  • Few at 1,500' AGL
  • Scattered at 12,000' AGL